Time;durP1;ratioP1;P1;durP2;ratioP2;P2;SDS_P1;SDS_P2;PMS_P1;PMS_P2;Temp;Humidity;BMP_temperature;BMP_pressure;BME280_temperature;BME280_humidity;BME280_pressure;Samples;Min_cycle;Max_cycle;Signal;HPM_P1;HPM_P2
2022/01/14 00:01:57;;;;;;;43.20;24.10;;;1.90;83.80;;;;;;5010673;28;20657;-68
2022/01/14 00:04:24;;;;;;;35.77;23.07;;;2.00;83.70;;;;;;5033941;28;20213;-68
2022/01/14 00:06:51;;;;;;;37.53;22.17;;;2.00;83.60;;;;;;5031836;28;20215;-68
2022/01/14 00:09:18;;;;;;;35.60;23.17;;;2.00;83.40;;;;;;5034905;28;20203;-68
2022/01/14 00:11:55;;;;;;;38.23;23.57;;;1.90;83.20;;;;;;5033787;28;20199;-69
2022/01/14 00:16:52;;;;;;;34.60;22.27;;;1.90;83.00;;;;;;5033864;28;20219;-68
2022/01/14 00:19:20;;;;;;;37.47;22.30;;;1.90;82.90;;;;;;5034072;28;20214;-68
2022/01/14 00:21:47;;;;;;;35.27;22.77;;;1.90;82.90;;;;;;5031842;28;20207;-68
2022/01/14 00:32:33;;;;;;;40.80;23.37;;;1.90;82.60;;;;;;5021572;28;20237;-68
2022/01/14 00:35:00;;;;;;;35.20;21.97;;;1.90;82.60;;;;;;5036172;28;20229;-69
2022/01/14 00:37:27;;;;;;;34.93;22.87;;;1.90;82.50;;;;;;5035991;28;20199;-69
2022/01/14 00:39:54;;;;;;;33.80;22.23;;;1.90;82.60;;;;;;5038128;28;20286;-68
2022/01/14 00:42:22;;;;;;;36.97;23.73;;;1.90;82.60;;;;;;5019465;28;20205;-68
2022/01/14 00:44:49;;;;;;;37.53;22.90;;;1.90;82.60;;;;;;5035851;28;20207;-68
2022/01/14 00:47:16;;;;;;;36.47;22.70;;;1.90;82.70;;;;;;5033043;28;20221;-68
2022/01/14 00:49:44;;;;;;;39.77;23.83;;;1.90;82.90;;;;;;5032783;28;20202;-68
2022/01/14 00:52:11;;;;;;;35.97;22.77;;;1.90;81.90;;;;;;5032546;28;20217;-68
2022/01/14 00:54:38;;;;;;;34.83;23.43;;;1.90;81.80;;;;;;5034556;28;20234;-68
2022/01/14 00:59:35;;;;;;;43.90;24.27;;;1.90;82.00;;;;;;5033222;28;20199;-68
2022/01/14 01:02:03;;;;;;;36.57;22.10;;;1.90;82.20;;;;;;5035065;28;20223;-68
2022/01/14 01:04:36;;;;;;;37.30;22.67;;;1.80;82.30;;;;;;5036234;28;20218;-68
2022/01/14 01:07:09;;;;;;;34.93;22.03;;;1.80;82.40;;;;;;5017702;28;20211;-68
2022/01/14 01:09:38;;;;;;;36.13;22.83;;;1.80;82.40;;;;;;5000825;28;20651;-68
2022/01/14 01:12:13;;;;;;;34.77;22.40;;;1.80;82.50;;;;;;5012783;28;20204;-68
2022/01/14 01:14:49;;;;;;;33.03;22.33;;;1.80;82.50;;;;;;5015012;28;20228;-68
2022/01/14 01:17:17;;;;;;;40.53;24.20;;;1.80;82.50;;;;;;5017477;28;20218;-68
2022/01/14 01:19:45;;;;;;;41.27;22.97;;;1.80;82.60;;;;;;5033193;28;20203;-68
2022/01/14 01:22:12;;;;;;;42.13;23.03;;;1.70;82.50;;;;;;5030993;28;20543;-68
2022/01/14 01:24:50;;;;;;;37.17;21.60;;;1.70;82.50;;;;;;5022031;28;20211;-68
2022/01/14 01:27:20;;;;;;;36.73;20.63;;;1.70;82.60;;;;;;5015728;28;20210;-68
2022/01/14 01:29:50;;;;;;;34.50;20.83;;;1.70;82.60;;;;;;5033537;28;20208;-68
2022/01/14 01:32:18;;;;;;;41.47;21.47;;;1.70;82.50;;;;;;5032362;28;20203;-68
2022/01/14 01:34:45;;;;;;;29.90;19.60;;;1.70;82.50;;;;;;5033218;28;20233;-68
2022/01/14 01:37:12;;;;;;;33.77;19.67;;;1.70;82.40;;;;;;5015621;28;20556;-68
2022/01/14 01:39:39;;;;;;;30.80;18.30;;;1.70;82.30;;;;;;5031150;28;20220;-68
2022/01/14 01:42:08;;;;;;;32.30;20.00;;;1.70;82.20;;;;;;4990341;28;20210;-68
2022/01/14 01:44:38;;;;;;;32.63;19.83;;;1.70;82.10;;;;;;5015140;28;20204;-68
2022/01/14 01:47:06;;;;;;;25.60;18.13;;;1.70;81.90;;;;;;5031890;28;20211;-68
2022/01/14 01:49:38;;;;;;;31.90;19.60;;;1.70;81.80;;;;;;5033547;28;20200;-68
2022/01/14 01:52:06;;;;;;;27.33;19.10;;;1.70;81.70;;;;;;5013814;28;20214;-68
2022/01/14 01:54:33;;;;;;;29.00;18.03;;;1.60;81.50;;;;;;5032353;28;20572;-68
2022/01/14 01:57:00;;;;;;;33.30;19.53;;;1.70;81.60;;;;;;5031646;28;20675;-68
2022/01/14 01:59:29;;;;;;;35.17;19.70;;;1.60;81.40;;;;;;5014575;28;20639;-68
2022/01/14 02:02:00;;;;;;;31.40;19.07;;;1.60;81.10;;;;;;5031757;28;20203;-68
2022/01/14 02:04:28;;;;;;;28.27;17.30;;;1.60;80.70;;;;;;5028300;28;20527;-68
2022/01/14 02:06:56;;;;;;;30.77;16.57;;;1.60;80.60;;;;;;4997821;28;20265;-68
2022/01/14 02:09:24;;;;;;;27.63;16.30;;;1.60;80.60;;;;;;5031940;28;20596;-68
2022/01/14 02:11:51;;;;;;;27.53;16.10;;;1.60;80.50;;;;;;5014444;28;20222;-68
2022/01/14 02:19:29;;;;;;;23.10;15.60;;;1.70;79.60;;;;;;5012844;28;20217;-68
2022/01/14 02:22:13;;;;;;;25.20;14.57;;;1.70;79.20;;;;;;5034347;28;20199;-68
2022/01/14 02:27:14;;;;;;;23.17;14.10;;;1.70;78.80;;;;;;5032908;28;20227;-68
2022/01/14 02:29:41;;;;;;;21.30;14.33;;;1.70;78.80;;;;;;5030793;28;20211;-68
2022/01/14 02:32:10;;;;;;;22.87;14.00;;;1.70;78.50;;;;;;5033311;28;20258;-68
2022/01/14 02:34:38;;;;;;;22.53;13.97;;;1.70;78.40;;;;;;5023696;28;20284;-67
2022/01/14 02:37:06;;;;;;;20.20;13.67;;;1.70;78.30;;;;;;5003734;28;20641;-68
2022/01/14 02:39:33;;;;;;;18.40;12.73;;;1.70;78.10;;;;;;5037941;28;20203;-67
2022/01/14 02:42:01;;;;;;;18.60;12.30;;;1.70;77.90;;;;;;5023553;28;20293;-68
2022/01/14 02:44:30;;;;;;;19.60;11.83;;;1.80;77.70;;;;;;5035415;28;20217;-68
2022/01/14 02:47:04;;;;;;;18.30;11.40;;;1.80;77.60;;;;;;5019449;28;20201;-68
2022/01/14 02:49:33;;;;;;;20.10;10.63;;;1.70;77.40;;;;;;5009294;28;20219;-68
2022/01/14 02:52:05;;;;;;;19.77;11.23;;;1.80;77.20;;;;;;5037492;28;20205;-67
2022/01/14 02:54:41;;;;;;;16.23;10.30;;;1.80;76.90;;;;;;5015865;28;20220;-67
2022/01/14 02:57:09;;;;;;;19.87;11.27;;;1.80;76.80;;;;;;5036461;28;20221;-67
2022/01/14 02:59:39;;;;;;;17.17;11.37;;;1.80;76.70;;;;;;5039109;28;20195;-67
2022/01/14 03:02:10;;;;;;;20.10;11.03;;;1.80;76.50;;;;;;5016989;28;20195;-68
2022/01/14 03:04:41;;;;;;;16.53;10.47;;;1.80;76.40;;;;;;5020921;28;20207;-68
2022/01/14 03:07:09;;;;;;;19.50;11.70;;;1.80;76.30;;;;;;5033583;28;20207;-68
2022/01/14 03:09:37;;;;;;;18.53;10.73;;;1.80;76.30;;;;;;5036063;28;20203;-68
2022/01/14 03:12:06;;;;;;;18.03;11.67;;;1.80;76.30;;;;;;5035126;28;20218;-67
2022/01/14 03:14:33;;;;;;;17.63;10.60;;;1.80;76.30;;;;;;5016313;28;20215;-67
2022/01/14 03:17:01;;;;;;;19.97;10.10;;;1.70;76.20;;;;;;5034445;28;20545;-67
2022/01/14 03:19:29;;;;;;;16.83;10.30;;;1.70;76.20;;;;;;5017736;28;20221;-67
2022/01/14 03:22:18;;;;;;;16.73;10.70;;;1.70;76.20;;;;;;5017215;28;20251;-67
2022/01/14 03:27:13;;;;;;;15.03;10.23;;;1.70;76.00;;;;;;5034330;28;20631;-67
2022/01/14 03:29:40;;;;;;;19.03;10.87;;;1.70;75.90;;;;;;5020851;28;20208;-67
2022/01/14 03:32:07;;;;;;;15.40;10.23;;;1.70;75.90;;;;;;5031159;28;20210;-67
2022/01/14 03:34:35;;;;;;;17.67;11.07;;;1.70;75.90;;;;;;5034180;28;20242;-67
2022/01/14 03:37:02;;;;;;;17.77;11.00;;;1.70;75.90;;;;;;5014783;28;20303;-67
2022/01/14 03:39:30;;;;;;;16.10;10.30;;;1.70;75.90;;;;;;5034593;28;20535;-67
2022/01/14 03:41:57;;;;;;;16.93;11.13;;;1.70;75.90;;;;;;5033876;28;20674;-67
2022/01/14 03:44:24;;;;;;;15.40;10.47;;;1.70;75.90;;;;;;5017281;28;20203;-67
2022/01/14 03:46:51;;;;;;;17.23;10.93;;;1.70;75.80;;;;;;5027114;28;20203;-67
2022/01/14 03:49:18;;;;;;;19.37;11.80;;;1.70;75.90;;;;;;5017056;28;20210;-68
2022/01/14 03:51:45;;;;;;;16.83;10.53;;;1.70;75.90;;;;;;5015666;28;20571;-68
2022/01/14 03:54:12;;;;;;;16.20;10.10;;;1.80;75.80;;;;;;5034097;28;20200;-68
2022/01/14 03:56:39;;;;;;;20.63;10.30;;;1.80;75.70;;;;;;5032385;28;20207;-68
2022/01/14 03:59:06;;;;;;;17.03;9.93;;;1.80;75.60;;;;;;5025269;28;20211;-67
2022/01/14 04:01:33;;;;;;;14.63;9.83;;;1.80;75.50;;;;;;5032764;28;20210;-67
2022/01/14 04:04:00;;;;;;;17.00;10.00;;;1.80;75.40;;;;;;5013749;28;20245;-67
2022/01/14 04:06:29;;;;;;;14.20;10.13;;;1.80;75.30;;;;;;5016275;28;20204;-67
2022/01/14 04:08:56;;;;;;;16.70;10.50;;;1.80;75.10;;;;;;5016977;28;20211;-67
2022/01/14 04:11:23;;;;;;;14.77;10.10;;;1.80;75.00;;;;;;5033420;28;20207;-67
2022/01/14 04:13:54;;;;;;;14.57;9.00;;;1.80;74.90;;;;;;5033794;28;20530;-67
2022/01/14 04:16:24;;;;;;;16.53;9.33;;;1.80;74.70;;;;;;5016018;28;20686;-68
2022/01/14 04:18:52;;;;;;;14.13;9.27;;;1.80;74.70;;;;;;5033798;28;20203;-67
2022/01/14 04:21:19;;;;;;;15.13;9.47;;;1.80;74.60;;;;;;5033213;28;20203;-67
2022/01/14 04:23:46;;;;;;;11.70;8.30;;;1.80;74.50;;;;;;5031902;28;20203;-67
2022/01/14 04:26:15;;;;;;;14.37;9.43;;;1.80;74.50;;;;;;5032496;28;20203;-67
2022/01/14 04:28:42;;;;;;;14.73;8.73;;;1.80;74.40;;;;;;5033450;28;20212;-67
2022/01/14 04:31:10;;;;;;;16.10;9.97;;;1.80;74.30;;;;;;5029456;28;20207;-67
2022/01/14 04:33:37;;;;;;;14.77;8.43;;;1.80;74.40;;;;;;5028976;28;20271;-67
2022/01/14 04:36:05;;;;;;;13.37;8.80;;;1.80;74.40;;;;;;5015835;28;20669;-67
2022/01/14 04:38:32;;;;;;;13.17;8.23;;;1.80;74.30;;;;;;5030673;28;20200;-67
2022/01/14 04:40:59;;;;;;;19.40;8.83;;;1.70;74.30;;;;;;5032857;28;20200;-67
2022/01/14 04:43:28;;;;;;;14.53;8.80;;;1.70;74.40;;;;;;5033180;28;20208;-67
2022/01/14 04:48:30;;;;;;;13.57;8.70;;;1.70;74.40;;;;;;5030929;28;20207;-67
2022/01/14 04:50:59;;;;;;;15.60;9.37;;;1.70;74.30;;;;;;5016260;28;20226;-67
2022/01/14 04:53:26;;;;;;;14.67;8.17;;;1.70;74.30;;;;;;4999587;28;20230;-67
2022/01/14 04:55:55;;;;;;;13.73;8.43;;;1.70;74.30;;;;;;5015279;28;20588;-67
2022/01/14 04:58:23;;;;;;;13.57;8.33;;;1.60;74.30;;;;;;5033132;28;20203;-67
2022/01/14 05:00:51;;;;;;;10.63;7.67;;;1.60;74.30;;;;;;5032599;28;20206;-67
2022/01/14 05:03:18;;;;;;;10.83;7.63;;;1.60;74.40;;;;;;4999225;28;20709;-67
2022/01/14 05:05:49;;;;;;;12.47;7.50;;;1.60;74.40;;;;;;5034000;28;20467;-67
2022/01/14 05:08:26;;;;;;;10.17;6.97;;;1.60;74.30;;;;;;4999101;28;20230;-67
2022/01/14 05:13:23;;;;;;;10.50;6.97;;;1.60;74.10;;;;;;5033014;28;20276;-67
2022/01/14 05:15:51;;;;;;;13.80;8.60;;;1.60;74.00;;;;;;5015143;28;20222;-67
2022/01/14 05:18:19;;;;;;;10.30;7.23;;;1.60;73.80;;;;;;5031732;28;20282;-67
2022/01/14 05:20:46;;;;;;;10.03;7.00;;;1.60;73.60;;;;;;5032872;28;20515;-67
2022/01/14 05:23:13;;;;;;;9.47;6.40;;;1.60;73.60;;;;;;5015983;28;20210;-67
2022/01/14 05:25:40;;;;;;;10.70;7.07;;;1.60;73.40;;;;;;5032653;28;20223;-68
2022/01/14 05:28:07;;;;;;;11.03;7.10;;;1.60;73.40;;;;;;5015479;28;20211;-67
2022/01/14 05:30:34;;;;;;;11.67;7.93;;;1.60;73.40;;;;;;5027045;28;20891;-67
2022/01/14 05:33:02;;;;;;;9.27;6.90;;;1.60;73.40;;;;;;5015348;28;20232;-67
2022/01/14 05:35:29;;;;;;;11.53;7.13;;;1.60;73.30;;;;;;5014583;28;20271;-67
2022/01/14 05:37:56;;;;;;;9.50;6.37;;;1.60;73.30;;;;;;5030436;28;20645;-67
2022/01/14 05:40:26;;;;;;;10.77;7.30;;;1.60;73.20;;;;;;5032753;28;20525;-67
2022/01/14 05:42:53;;;;;;;12.20;7.17;;;1.60;73.20;;;;;;5032554;28;20230;-67
2022/01/14 05:45:20;;;;;;;10.37;6.97;;;1.60;73.20;;;;;;5032462;28;20200;-67
2022/01/14 05:47:47;;;;;;;11.10;6.90;;;1.50;73.10;;;;;;5032313;28;20657;-67
2022/01/14 05:50:19;;;;;;;8.70;6.40;;;1.50;73.10;;;;;;5032167;28;20211;-67
2022/01/14 05:52:46;;;;;;;13.70;7.47;;;1.50;73.20;;;;;;5014730;28;20211;-67
2022/01/14 05:55:17;;;;;;;12.03;7.17;;;1.50;73.70;;;;;;5032963;28;20216;-67
2022/01/14 05:57:44;;;;;;;10.93;6.27;;;1.50;73.00;;;;;;5035702;28;20682;-67
2022/01/14 06:00:16;;;;;;;10.90;6.40;;;1.50;72.90;;;;;;5033483;28;20206;-67
2022/01/14 06:02:45;;;;;;;9.90;5.57;;;1.50;72.80;;;;;;5036626;28;20209;-67
2022/01/14 06:05:13;;;;;;;10.53;6.50;;;1.50;72.80;;;;;;5036772;28;20236;-67
2022/01/14 06:07:41;;;;;;;11.87;6.07;;;1.50;72.80;;;;;;5019225;28;20219;-68
2022/01/14 06:10:08;;;;;;;12.90;6.40;;;1.60;72.90;;;;;;5036555;28;20237;-67
2022/01/14 06:12:35;;;;;;;9.30;6.63;;;1.50;72.80;;;;;;5001910;28;20211;-67
2022/01/14 06:15:04;;;;;;;9.83;6.07;;;1.50;72.60;;;;;;5018604;28;20574;-67
2022/01/14 06:17:31;;;;;;;10.23;6.27;;;1.50;72.70;;;;;;5015481;28;20268;-67
2022/01/14 06:19:58;;;;;;;10.73;5.93;;;1.50;72.70;;;;;;5036000;28;20195;-67
2022/01/14 06:22:25;;;;;;;9.27;5.27;;;1.50;72.70;;;;;;5017036;28;20542;-67
2022/01/14 06:24:52;;;;;;;11.23;5.60;;;1.50;72.70;;;;;;5036420;28;20575;-67
2022/01/14 06:27:19;;;;;;;9.83;5.73;;;1.50;72.70;;;;;;5017299;28;20207;-67
2022/01/14 06:29:46;;;;;;;9.77;5.97;;;1.50;72.60;;;;;;5002370;28;20514;-67
2022/01/14 06:32:13;;;;;;;10.20;6.23;;;1.50;72.60;;;;;;5016863;28;20207;-67
2022/01/14 06:34:40;;;;;;;11.00;6.47;;;1.50;72.60;;;;;;5018420;28;20694;-67
2022/01/14 06:37:07;;;;;;;11.13;5.67;;;1.50;72.70;;;;;;5031993;28;20247;-68
2022/01/14 06:39:34;;;;;;;11.87;5.90;;;1.50;72.80;;;;;;5018055;28;20608;-68
2022/01/14 06:42:02;;;;;;;10.20;6.10;;;1.40;72.80;;;;;;5017196;28;20234;-68
2022/01/14 06:44:29;;;;;;;10.77;5.37;;;1.40;72.90;;;;;;5017945;28;20216;-68
2022/01/14 06:46:56;;;;;;;13.03;5.93;;;1.40;73.00;;;;;;5034951;28;20522;-67
2022/01/14 06:49:23;;;;;;;11.07;5.67;;;1.40;73.00;;;;;;5035575;28;20205;-67
2022/01/14 06:51:50;;;;;;;9.20;5.70;;;1.40;73.10;;;;;;5034007;28;20208;-68
2022/01/14 06:54:18;;;;;;;13.70;5.90;;;1.40;73.10;;;;;;5033813;28;20213;-68
2022/01/14 06:56:45;;;;;;;11.57;6.00;;;1.40;73.10;;;;;;5022882;28;20235;-68
2022/01/14 06:59:12;;;;;;;11.53;5.93;;;1.40;73.10;;;;;;5017821;28;20211;-67
2022/01/14 07:01:39;;;;;;;11.30;6.00;;;1.40;73.20;;;;;;5015066;28;20314;-67
2022/01/14 07:04:06;;;;;;;8.53;5.13;;;1.40;73.10;;;;;;5018154;28;20627;-68
2022/01/14 07:06:34;;;;;;;13.13;5.50;;;1.40;73.10;;;;;;5034640;28;20282;-68
2022/01/14 07:09:01;;;;;;;11.10;5.53;;;1.50;73.10;;;;;;5034706;28;20214;-67
2022/01/14 07:11:35;;;;;;;7.03;5.50;;;1.50;73.00;;;;;;5034386;28;20209;-67
2022/01/14 07:14:03;;;;;;;9.87;4.97;;;1.60;73.00;;;;;;5011870;28;20226;-68
2022/01/14 07:16:32;;;;;;;8.47;5.07;;;1.60;72.80;;;;;;5032369;28;20239;-68
2022/01/14 07:19:01;;;;;;;8.67;5.10;;;1.80;72.40;;;;;;5015428;28;20191;-67
2022/01/14 07:21:28;;;;;;;10.27;5.73;;;1.90;71.90;;;;;;5017555;28;20218;-67
2022/01/14 07:23:55;;;;;;;12.20;5.40;;;1.90;71.70;;;;;;5017869;28;20225;-67
2022/01/14 07:26:22;;;;;;;10.03;6.10;;;1.90;71.80;;;;;;5035262;28;20242;-69
2022/01/14 07:28:49;;;;;;;8.00;5.50;;;1.80;71.90;;;;;;5035445;28;20215;-67
2022/01/14 07:31:16;;;;;;;12.50;5.90;;;1.80;72.10;;;;;;5017324;28;20579;-67
2022/01/14 07:33:44;;;;;;;13.10;5.40;;;1.90;72.30;;;;;;5034468;28;20536;-69
2022/01/14 07:36:11;;;;;;;6.37;4.77;;;1.90;72.30;;;;;;5032258;28;20204;-67
2022/01/14 07:38:38;;;;;;;7.30;5.83;;;1.90;72.40;;;;;;5016943;28;20213;-68
2022/01/14 07:41:05;;;;;;;6.83;5.00;;;2.00;72.40;;;;;;5034400;28;20572;-68
2022/01/14 07:43:34;;;;;;;10.60;5.33;;;2.00;72.40;;;;;;5033890;28;20644;-68
2022/01/14 07:46:08;;;;;;;10.70;5.63;;;2.10;72.30;;;;;;5034186;28;20279;-68
2022/01/14 07:48:35;;;;;;;8.80;5.53;;;2.10;72.20;;;;;;5032905;28;20538;-68
2022/01/14 07:51:02;;;;;;;8.70;5.07;;;2.10;72.00;;;;;;5033699;28;20218;-68
2022/01/14 07:53:29;;;;;;;9.60;5.60;;;2.20;72.50;;;;;;5016561;28;20284;-68
2022/01/14 07:55:56;;;;;;;11.60;5.97;;;2.30;71.80;;;;;;5031911;28;20215;-68
2022/01/14 07:58:24;;;;;;;12.43;6.03;;;2.30;71.70;;;;;;5034622;28;20204;-68
2022/01/14 08:00:51;;;;;;;13.13;6.13;;;2.40;71.80;;;;;;5034131;28;20209;-68
2022/01/14 08:03:18;;;;;;;13.27;6.17;;;2.40;72.30;;;;;;5016761;28;20590;-68
2022/01/14 08:05:47;;;;;;;13.20;8.00;;;2.50;71.80;;;;;;5016544;28;20199;-68
2022/01/14 08:08:14;;;;;;;12.80;7.43;;;2.60;71.70;;;;;;5016964;28;20203;-68
2022/01/14 08:10:41;;;;;;;13.27;8.17;;;2.70;71.70;;;;;;5033316;28;20299;-68
2022/01/14 08:13:08;;;;;;;11.67;8.60;;;2.70;71.70;;;;;;5034119;28;20216;-68
2022/01/14 08:15:35;;;;;;;15.13;9.17;;;2.80;72.00;;;;;;5013615;28;20274;-68
2022/01/14 08:18:03;;;;;;;19.90;10.37;;;2.90;72.50;;;;;;5013247;28;20208;-68
2022/01/14 08:20:30;;;;;;;16.83;10.83;;;3.00;72.60;;;;;;5032994;28;20211;-68
2022/01/14 08:22:58;;;;;;;23.50;12.03;;;3.10;72.70;;;;;;5016331;28;20730;-68
2022/01/14 08:25:26;;;;;;;23.50;12.80;;;3.20;73.00;;;;;;5032085;28;20568;-68
2022/01/14 08:27:53;;;;;;;21.00;13.83;;;3.30;73.20;;;;;;5032867;28;20307;-68
2022/01/14 08:30:21;;;;;;;24.53;15.20;;;3.40;73.30;;;;;;5032683;28;20200;-68
2022/01/14 08:32:48;;;;;;;30.77;16.07;;;3.50;73.60;;;;;;5033559;28;20690;-68
2022/01/14 08:35:15;;;;;;;30.03;17.63;;;3.60;74.00;;;;;;5014638;28;20269;-68
2022/01/14 08:37:42;;;;;;;29.30;18.13;;;3.70;74.40;;;;;;5031189;28;20569;-68
2022/01/14 08:40:11;;;;;;;29.03;19.03;;;3.70;74.50;;;;;;5032951;28;20305;-68
2022/01/14 08:42:38;;;;;;;29.40;20.20;;;3.90;74.60;;;;;;5032851;28;20210;-68
2022/01/14 08:45:06;;;;;;;30.77;19.03;;;3.90;74.60;;;;;;5033424;28;20258;-68
2022/01/14 08:47:38;;;;;;;28.70;19.67;;;4.10;74.70;;;;;;5033084;28;20604;-68
2022/01/14 08:50:05;;;;;;;28.07;18.63;;;4.20;74.70;;;;;;5033162;28;20232;-68
2022/01/14 08:52:32;;;;;;;31.77;20.07;;;4.30;74.50;;;;;;5014942;28;20725;-68
2022/01/14 08:54:59;;;;;;;30.53;19.73;;;4.40;74.40;;;;;;5005952;28;20231;-68
2022/01/14 09:01:35;;;;;;;29.93;19.50;;;4.60;74.40;;;;;;5030150;28;20332;-68
2022/01/14 09:04:03;;;;;;;35.67;19.13;;;4.70;74.10;;;;;;5026170;28;20627;-67
2022/01/14 09:06:31;;;;;;;24.77;17.03;;;4.80;73.90;;;;;;5014289;28;20230;-67
2022/01/14 09:08:58;;;;;;;25.17;16.77;;;4.90;73.60;;;;;;5033374;28;20215;-68
2022/01/14 09:11:25;;;;;;;25.30;16.07;;;5.00;73.10;;;;;;5031135;28;20517;-68
2022/01/14 09:13:52;;;;;;;27.40;16.67;;;5.10;72.80;;;;;;5032897;28;20219;-68
2022/01/14 09:16:20;;;;;;;23.37;15.50;;;5.20;72.50;;;;;;4998173;28;20221;-68
2022/01/14 09:18:48;;;;;;;23.27;14.40;;;5.30;72.10;;;;;;5031980;28;20544;-67
2022/01/14 09:21:17;;;;;;;25.50;15.83;;;5.30;71.50;;;;;;5014411;28;20220;-68
2022/01/14 09:23:54;;;;;;;27.33;17.13;;;5.40;71.40;;;;;;5032580;28;20210;-68
2022/01/14 09:26:21;;;;;;;30.13;15.43;;;5.50;71.20;;;;;;5014278;28;20208;-68
2022/01/14 09:28:49;;;;;;;29.87;16.93;;;5.60;71.20;;;;;;5009787;28;20208;-68
2022/01/14 09:31:16;;;;;;;25.03;16.73;;;5.70;71.00;;;;;;5031885;28;20232;-68
2022/01/14 09:33:43;;;;;;;28.53;18.03;;;5.80;70.90;;;;;;5031963;28;20770;-67
2022/01/14 09:36:10;;;;;;;32.47;18.27;;;5.80;70.90;;;;;;5028391;28;20221;-67
2022/01/14 09:38:38;;;;;;;35.33;18.90;;;5.90;70.90;;;;;;5033495;28;20223;-67
2022/01/14 09:41:07;;;;;;;34.97;20.23;;;6.00;70.70;;;;;;5031985;28;20209;-67
2022/01/14 09:43:38;;;;;;;29.23;20.37;;;6.10;70.80;;;;;;5012094;28;20289;-67
2022/01/14 09:46:10;;;;;;;32.90;19.90;;;6.20;70.80;;;;;;5015088;28;20313;-67
2022/01/14 09:48:39;;;;;;;32.87;20.27;;;6.30;70.10;;;;;;5031720;28;20634;-67
2022/01/14 09:51:06;;;;;;;38.80;20.07;;;6.40;70.40;;;;;;5032081;28;20623;-67
2022/01/14 09:53:33;;;;;;;37.13;21.20;;;6.50;69.80;;;;;;5030054;28;20206;-67
2022/01/14 09:56:02;;;;;;;31.57;20.97;;;6.60;70.00;;;;;;5032433;28;20649;-67
2022/01/14 09:58:36;;;;;;;32.27;18.67;;;6.60;70.00;;;;;;5015373;28;20213;-68
2022/01/14 10:01:07;;;;;;;36.60;21.20;;;6.70;69.80;;;;;;5031212;28;20211;-67
2022/01/14 10:03:34;;;;;;;32.43;20.80;;;6.80;69.40;;;;;;5011601;28;20209;-67
2022/01/14 10:06:01;;;;;;;33.83;20.37;;;6.90;69.30;;;;;;5015092;28;20202;-67
2022/01/14 10:08:29;;;;;;;30.63;19.73;;;7.00;68.90;;;;;;5032613;28;20208;-67
2022/01/14 10:10:59;;;;;;;31.37;20.80;;;7.10;68.40;;;;;;5031955;28;20203;-67
2022/01/14 10:13:34;;;;;;;34.00;21.10;;;7.10;68.50;;;;;;5015191;28;20207;-67
2022/01/14 10:16:07;;;;;;;33.13;19.80;;;7.20;68.40;;;;;;5031250;28;20212;-67
2022/01/14 10:18:36;;;;;;;35.37;20.40;;;7.30;68.00;;;;;;5015181;28;20546;-68
2022/01/14 10:21:06;;;;;;;30.87;18.47;;;7.40;67.00;;;;;;5029551;28;20198;-67
2022/01/14 10:23:41;;;;;;;31.90;18.63;;;7.40;66.80;;;;;;5012703;28;20211;-67
2022/01/14 10:26:08;;;;;;;31.33;19.20;;;7.50;66.50;;;;;;5014586;28;20210;-67
2022/01/14 10:28:36;;;;;;;28.03;19.07;;;7.60;66.70;;;;;;5015265;28;20639;-67
2022/01/14 10:31:05;;;;;;;32.97;18.93;;;7.70;66.60;;;;;;4998303;28;20276;-67
2022/01/14 10:33:32;;;;;;;26.77;19.13;;;7.80;65.80;;;;;;5015221;28;20234;-67
2022/01/14 10:36:00;;;;;;;28.87;19.40;;;7.80;65.70;;;;;;5029015;28;20227;-67
2022/01/14 10:38:37;;;;;;;29.97;19.77;;;7.90;65.70;;;;;;5012096;28;20214;-67
2022/01/14 10:41:11;;;;;;;28.77;16.83;;;8.00;65.40;;;;;;5031713;28;20222;-67
2022/01/14 10:43:44;;;;;;;29.10;18.77;;;8.10;65.30;;;;;;5032317;28;20226;-67
2022/01/14 10:46:11;;;;;;;29.37;18.37;;;8.20;64.80;;;;;;5035297;28;20634;-67
2022/01/14 10:48:41;;;;;;;27.43;17.90;;;8.30;64.80;;;;;;5035568;28;20652;-68
2022/01/14 10:51:10;;;;;;;34.20;19.00;;;8.40;64.80;;;;;;5018072;28;20244;-68
2022/01/14 10:53:41;;;;;;;28.13;17.20;;;8.50;64.70;;;;;;5018502;28;20202;-68
2022/01/14 10:56:13;;;;;;;27.23;18.97;;;8.50;64.70;;;;;;5035326;28;20210;-68
2022/01/14 10:58:43;;;;;;;29.93;17.33;;;8.60;64.60;;;;;;5018250;28;20221;-68
2022/01/14 11:01:15;;;;;;;30.20;18.43;;;8.70;64.20;;;;;;5031429;28;20214;-67
2022/01/14 11:03:44;;;;;;;26.23;16.60;;;8.80;63.80;;;;;;5017680;28;20296;-68
2022/01/14 11:06:28;;;;;;;25.50;17.30;;;8.90;63.60;;;;;;5034873;28;20567;-67
2022/01/14 11:09:08;;;;;;;24.57;17.40;;;8.90;60.70;;;;;;5034561;28;20217;-67
2022/01/14 11:11:38;;;;;;;26.93;18.60;;;9.00;60.20;;;;;;5034724;28;20207;-67
2022/01/14 11:14:06;;;;;;;25.30;17.30;;;9.00;59.40;;;;;;4994108;28;20302;-67
2022/01/14 11:16:35;;;;;;;28.33;16.83;;;9.00;60.20;;;;;;5017463;28;20288;-68
2022/01/14 11:19:04;;;;;;;25.73;18.07;;;9.10;59.00;;;;;;5032568;28;20199;-68
2022/01/14 11:24:33;;;;;;;26.27;18.47;;;9.20;57.70;;;;;;5033843;28;20221;-68
2022/01/14 11:27:16;;;;;;;26.97;17.63;;;9.30;57.50;;;;;;5032592;28;20290;-68
2022/01/14 11:29:47;;;;;;;24.53;16.73;;;9.30;58.00;;;;;;5034322;28;20257;-68
2022/01/14 11:32:14;;;;;;;25.53;16.90;;;9.50;58.70;;;;;;5034543;28;20226;-68
2022/01/14 11:34:46;;;;;;;25.13;16.77;;;9.50;58.00;;;;;;5034750;28;20246;-68
2022/01/14 11:37:32;;;;;;;22.87;17.53;;;9.60;57.60;;;;;;5032350;28;20257;-68
2022/01/14 11:40:08;;;;;;;27.30;16.27;;;9.70;58.40;;;;;;5000393;28;20211;-68
2022/01/14 11:42:49;;;;;;;26.40;17.27;;;9.80;57.20;;;;;;5033695;28;20222;-68
2022/01/14 11:45:40;;;;;;;24.03;16.17;;;9.90;56.90;;;;;;5006030;28;20553;-68
2022/01/14 11:48:07;;;;;;;28.13;17.20;;;9.90;56.50;;;;;;5034348;28;20623;-68
2022/01/14 11:50:37;;;;;;;27.23;15.27;;;10.00;56.80;;;;;;5023110;28;20209;-69
2022/01/14 11:53:05;;;;;;;27.07;16.57;;;10.10;56.40;;;;;;5031670;28;20214;-69
2022/01/14 11:55:32;;;;;;;22.47;16.00;;;10.20;56.00;;;;;;5034111;28;20212;-69
2022/01/14 11:58:00;;;;;;;25.40;15.37;;;10.20;55.90;;;;;;5034415;28;20311;-69
2022/01/14 12:00:30;;;;;;;23.77;16.60;;;10.30;55.60;;;;;;5033826;28;20203;-69
2022/01/14 12:03:25;;;;;;;23.50;15.87;;;10.40;56.30;;;;;;5034504;28;20200;-69
2022/01/14 12:05:58;;;;;;;23.43;17.17;;;10.50;56.80;;;;;;5000633;28;20207;-69
2022/01/14 12:08:32;;;;;;;27.27;17.37;;;10.60;57.20;;;;;;5030400;28;20242;-69
2022/01/14 12:11:17;;;;;;;23.87;16.13;;;10.70;57.10;;;;;;5033052;28;20211;-69
2022/01/14 12:13:54;;;;;;;22.87;16.03;;;10.70;56.30;;;;;;5020984;28;20227;-68
2022/01/14 12:16:37;;;;;;;22.90;16.13;;;10.80;56.60;;;;;;5015553;28;20534;-69
2022/01/14 12:19:10;;;;;;;24.83;16.13;;;10.90;56.40;;;;;;5015033;28;20224;-69
2022/01/14 12:21:50;;;;;;;22.43;16.50;;;11.00;56.10;;;;;;5016159;28;20287;-69
2022/01/14 12:24:27;;;;;;;24.40;15.80;;;11.00;56.20;;;;;;5000409;28;20219;-68
2022/01/14 12:26:58;;;;;;;21.40;15.23;;;11.10;56.20;;;;;;5030366;28;20199;-68
2022/01/14 12:29:32;;;;;;;26.50;16.67;;;11.20;56.40;;;;;;5033640;28;20221;-68
2022/01/14 12:32:06;;;;;;;23.80;15.50;;;11.30;56.60;;;;;;5033102;28;20308;-68
2022/01/14 12:34:36;;;;;;;26.33;16.73;;;11.30;55.80;;;;;;5031056;28;20568;-68
2022/01/14 12:37:05;;;;;;;22.17;15.13;;;11.30;55.90;;;;;;5013483;28;20223;-68
2022/01/14 12:39:32;;;;;;;20.60;16.50;;;11.40;55.90;;;;;;5016341;28;20258;-68
2022/01/14 12:42:00;;;;;;;21.13;14.57;;;11.40;54.90;;;;;;5032425;28;20196;-68
2022/01/14 12:44:28;;;;;;;23.47;15.53;;;11.40;54.40;;;;;;5033506;28;20208;-68
2022/01/14 12:47:05;;;;;;;21.83;14.83;;;11.40;54.40;;;;;;5031419;28;20215;-68
2022/01/14 12:49:37;;;;;;;20.07;14.27;;;11.40;55.10;;;;;;5031727;28;20211;-68
2022/01/14 12:52:10;;;;;;;22.93;15.83;;;11.40;55.50;;;;;;5032918;28;20586;-68
2022/01/14 12:54:42;;;;;;;24.33;15.63;;;11.40;55.20;;;;;;5030413;28;20203;-68
2022/01/14 12:57:13;;;;;;;27.37;16.00;;;11.40;55.80;;;;;;5032845;28;20243;-68
2022/01/14 12:59:49;;;;;;;21.57;15.13;;;11.40;55.70;;;;;;5015803;28;20212;-68
2022/01/14 13:02:21;;;;;;;22.60;15.40;;;11.50;55.80;;;;;;5015530;28;20215;-68
2022/01/14 13:05:04;;;;;;;22.83;16.50;;;11.50;55.80;;;;;;5032695;28;20201;-68
2022/01/14 13:07:32;;;;;;;25.07;16.27;;;11.60;55.80;;;;;;5000460;28;20245;-68
2022/01/14 13:10:01;;;;;;;23.90;16.03;;;11.60;56.30;;;;;;5031849;28;20200;-69
2022/01/14 13:12:33;;;;;;;21.77;15.77;;;11.60;56.20;;;;;;5015335;28;20287;-69
2022/01/14 13:15:03;;;;;;;25.03;15.60;;;11.60;55.80;;;;;;5030901;28;20298;-69
2022/01/14 13:17:34;;;;;;;19.73;14.37;;;11.70;55.50;;;;;;5015106;28;20229;-68
2022/01/14 13:20:13;;;;;;;20.90;14.13;;;11.70;55.70;;;;;;5030899;28;20292;-68
2022/01/14 13:22:43;;;;;;;22.00;14.70;;;11.70;54.90;;;;;;5012370;28;20307;-68
2022/01/14 13:25:16;;;;;;;20.73;15.83;;;11.70;54.90;;;;;;5015640;28;20206;-70
2022/01/14 13:27:56;;;;;;;24.23;15.30;;;11.70;55.50;;;;;;5032999;28;20691;-69